createdAt,value
2022-11-09T00:00:07.189Z,22.55
2022-11-09T00:00:29.643Z,22.59
2022-11-09T00:00:52.025Z,22.56
2022-11-09T00:01:13.611Z,22.60
2022-11-09T00:01:35.223Z,22.61
2022-11-09T00:01:57.779Z,22.61
2022-11-09T00:02:19.321Z,22.61
2022-11-09T00:02:43.942Z,22.57
2022-11-09T00:03:05.830Z,22.58
2022-11-09T00:03:28.342Z,22.57
2022-11-09T00:03:54.749Z,22.57
2022-11-09T00:04:16.362Z,22.57
2022-11-09T00:04:38.896Z,22.56
2022-11-09T00:05:00.465Z,22.57
2022-11-09T00:05:22.039Z,22.55
2022-11-09T00:05:44.584Z,22.55
2022-11-09T00:06:06.266Z,22.55
2022-11-09T00:06:28.802Z,22.57
2022-11-09T00:06:52.740Z,22.58
2022-11-09T00:07:15.606Z,22.59
2022-11-09T00:07:37.171Z,22.60
2022-11-09T00:07:58.739Z,22.58
2022-11-09T00:08:20.273Z,22.59
2022-11-09T00:08:44.150Z,22.58
2022-11-09T00:09:08.350Z,22.60
2022-11-09T00:09:30.279Z,22.59
2022-11-09T00:09:51.964Z,22.60
2022-11-09T00:10:14.738Z,22.62
2022-11-09T00:10:36.370Z,22.62
2022-11-09T00:11:03.123Z,22.58
2022-11-09T00:11:25.834Z,22.56
2022-11-09T00:11:47.401Z,22.59
2022-11-09T00:12:09.065Z,22.57
2022-11-09T00:12:30.627Z,22.56
2022-11-09T00:12:53.219Z,22.55
2022-11-09T00:13:14.808Z,22.57
2022-11-09T00:13:37.871Z,22.50
2022-11-09T00:13:59.433Z,22.54
2022-11-09T00:14:22.132Z,22.53
2022-11-09T00:14:43.742Z,22.53
2022-11-09T00:15:06.002Z,22.56
2022-11-09T00:15:27.705Z,22.56
2022-11-09T00:15:49.361Z,22.54
2022-11-09T00:16:13.827Z,22.55
2022-11-09T00:16:35.409Z,22.43
2022-11-09T00:16:57.097Z,22.47
2022-11-09T00:17:19.672Z,22.44
2022-11-09T00:17:41.236Z,22.48
2022-11-09T00:18:02.850Z,22.44
2022-11-09T00:18:24.552Z,22.42
2022-11-09T00:18:47.541Z,22.46
2022-11-09T00:19:09.244Z,22.48
2022-11-09T00:19:30.832Z,22.46
2022-11-09T00:19:52.486Z,22.47
2022-11-09T00:20:15.083Z,22.45
2022-11-09T00:20:36.664Z,22.45
2022-11-09T00:20:58.323Z,22.46
2022-11-09T00:21:22.607Z,22.25
2022-11-09T00:21:44.172Z,22.42
2022-11-09T00:22:05.740Z,22.39
2022-11-09T00:22:28.340Z,22.39
2022-11-09T00:22:50.223Z,22.31
2022-11-09T00:23:11.762Z,22.38
2022-11-09T00:23:33.842Z,22.38
2022-11-09T00:23:58.491Z,22.39
2022-11-09T00:24:20.042Z,22.43
2022-11-09T00:24:41.592Z,22.42
2022-11-09T00:25:03.536Z,22.42
2022-11-09T00:25:25.192Z,22.42
2022-11-09T00:25:48.559Z,22.42
2022-11-09T00:26:12.015Z,22.42
2022-11-09T00:26:33.615Z,22.35
2022-11-09T00:26:56.160Z,22.34
2022-11-09T00:27:18.006Z,22.31
2022-11-09T00:27:39.776Z,22.25
2022-11-09T00:28:01.339Z,22.26
2022-11-09T00:28:23.864Z,22.27
2022-11-09T00:28:45.460Z,22.20
2022-11-09T00:29:07.126Z,22.24
2022-11-09T00:29:28.835Z,22.26
2022-11-09T00:29:51.378Z,22.25
2022-11-09T00:30:13.920Z,22.23
2022-11-09T00:30:35.564Z,22.22
2022-11-09T00:30:59.357Z,22.24
2022-11-09T00:31:24.308Z,21.99
2022-11-09T00:31:45.891Z,22.05
2022-11-09T00:32:10.013Z,21.95
2022-11-09T00:32:31.622Z,21.91
2022-11-09T00:32:54.208Z,21.94
2022-11-09T00:33:16.002Z,21.97
2022-11-09T00:33:38.972Z,21.92
2022-11-09T00:34:00.547Z,22.06
2022-11-09T00:34:23.109Z,22.06
2022-11-09T00:34:44.736Z,22.09
2022-11-09T00:35:06.785Z,22.13
2022-11-09T00:35:29.903Z,22.11
2022-11-09T00:35:52.491Z,22.07
2022-11-09T00:36:14.139Z,22.05
2022-11-09T00:36:35.747Z,22.07
2022-11-09T00:36:57.345Z,22.07
2022-11-09T00:37:19.943Z,22.10
2022-11-09T00:37:41.583Z,22.14
2022-11-09T00:38:05.050Z,22.08
2022-11-09T00:38:26.764Z,22.04
2022-11-09T00:38:50.747Z,22.12
2022-11-09T00:39:13.760Z,22.11
2022-11-09T00:39:35.357Z,22.12
2022-11-09T00:39:57.080Z,22.14
2022-11-09T00:40:19.626Z,22.10
2022-11-09T00:40:41.282Z,22.09
2022-11-09T00:41:03.427Z,22.08
2022-11-09T00:41:27.277Z,22.09
2022-11-09T00:41:51.226Z,22.11
2022-11-09T00:42:12.765Z,22.12
2022-11-09T00:42:34.322Z,22.12
2022-11-09T00:42:55.888Z,22.11
2022-11-09T00:43:19.020Z,22.06
2022-11-09T00:43:41.835Z,21.88
2022-11-09T00:44:03.632Z,21.92
2022-11-09T00:44:25.377Z,21.96
2022-11-09T00:44:46.932Z,22.02
2022-11-09T00:45:10.114Z,22.05
2022-11-09T00:45:31.686Z,22.06
2022-11-09T00:45:53.327Z,22.04
2022-11-09T00:46:15.966Z,22.07
2022-11-09T00:46:39.271Z,22.11
2022-11-09T00:47:01.143Z,22.04
2022-11-09T00:47:22.786Z,22.08
2022-11-09T00:47:44.535Z,22.07
2022-11-09T00:48:08.218Z,22.00
2022-11-09T00:48:30.543Z,22.00
2022-11-09T00:48:54.290Z,22.08
2022-11-09T00:49:15.879Z,22.10
2022-11-09T00:49:38.476Z,22.05
2022-11-09T00:50:00.065Z,21.98
2022-11-09T00:50:21.636Z,21.99
2022-11-09T00:50:49.586Z,21.98
2022-11-09T00:51:13.024Z,21.99
2022-11-09T00:51:35.835Z,21.99
2022-11-09T00:51:57.668Z,22.00
2022-11-09T00:52:19.320Z,22.01
2022-11-09T00:52:41.966Z,22.05
2022-11-09T00:53:03.633Z,22.08
2022-11-09T00:53:26.145Z,22.10
2022-11-09T00:53:49.083Z,22.09
2022-11-09T00:54:10.915Z,22.10
2022-11-09T00:54:33.838Z,22.09
2022-11-09T00:54:55.444Z,22.09
2022-11-09T00:55:17.994Z,22.11
2022-11-09T00:55:39.571Z,22.10
2022-11-09T00:56:02.626Z,22.11
2022-11-09T00:56:26.255Z,22.10
2022-11-09T00:56:47.785Z,22.09
2022-11-09T00:57:09.502Z,22.05
2022-11-09T00:57:31.208Z,22.10
2022-11-09T00:57:54.619Z,22.08
2022-11-09T00:58:17.955Z,22.13
2022-11-09T00:58:40.834Z,22.10
2022-11-09T00:59:03.368Z,22.06
2022-11-09T00:59:24.954Z,22.08
2022-11-09T00:59:46.608Z,22.09
2022-11-09T01:00:09.207Z,22.09
2022-11-09T01:00:31.738Z,22.09
2022-11-09T01:00:54.180Z,22.02
2022-11-09T01:01:17.477Z,22.09
2022-11-09T01:01:39.230Z,22.06
2022-11-09T01:02:01.772Z,22.11
2022-11-09T01:02:23.376Z,22.07
2022-11-09T01:02:44.984Z,22.04
2022-11-09T01:03:06.589Z,22.05
2022-11-09T01:03:29.100Z,22.01
2022-11-09T01:03:50.791Z,22.06
2022-11-09T01:04:12.487Z,22.07
2022-11-09T01:04:34.132Z,22.09
2022-11-09T01:04:56.799Z,22.07
2022-11-09T01:05:20.028Z,22.06
2022-11-09T01:05:43.966Z,22.07
2022-11-09T01:06:06.750Z,22.05
2022-11-09T01:06:29.369Z,22.03
2022-11-09T01:06:51.078Z,22.05
2022-11-09T01:07:12.767Z,22.06
2022-11-09T01:07:36.980Z,22.05
2022-11-09T01:07:59.814Z,22.02
2022-11-09T01:08:21.365Z,22.08
2022-11-09T01:08:43.033Z,22.06
2022-11-09T01:09:05.001Z,22.06
2022-11-09T01:09:27.624Z,22.03
2022-11-09T01:09:51.255Z,22.05
2022-11-09T01:10:13.037Z,22.00
2022-11-09T01:10:34.882Z,22.01
2022-11-09T01:10:56.751Z,22.05
2022-11-09T01:11:20.971Z,22.00
2022-11-09T01:11:42.575Z,22.05
2022-11-09T01:12:04.351Z,22.05
2022-11-09T01:12:25.976Z,22.07
2022-11-09T01:12:48.533Z,22.07
2022-11-09T01:13:11.478Z,22.03
2022-11-09T01:13:33.609Z,22.00
2022-11-09T01:13:55.618Z,21.95
2022-11-09T01:14:18.194Z,21.99
2022-11-09T01:14:39.824Z,22.02
2022-11-09T01:15:01.531Z,21.96
2022-11-09T01:15:23.163Z,22.05
2022-11-09T01:15:47.533Z,22.02
2022-11-09T01:16:11.365Z,21.92
2022-11-09T01:16:32.959Z,21.95
2022-11-09T01:16:55.510Z,21.91
2022-11-09T01:17:17.079Z,21.93
2022-11-09T01:17:38.663Z,21.90
2022-11-09T01:18:00.298Z,21.88
2022-11-09T01:18:22.026Z,21.89
2022-11-09T01:18:44.616Z,21.89
2022-11-09T01:19:06.509Z,21.87
2022-11-09T01:19:28.096Z,21.85
2022-11-09T01:19:49.924Z,21.87
2022-11-09T01:20:13.116Z,21.87
2022-11-09T01:20:34.689Z,21.85
2022-11-09T01:20:56.301Z,21.87
2022-11-09T01:21:18.620Z,21.87
2022-11-09T01:21:41.212Z,21.89
2022-11-09T01:22:02.811Z,21.90
2022-11-09T01:22:24.398Z,21.88
2022-11-09T01:22:46.000Z,21.84
2022-11-09T01:23:07.966Z,21.83
2022-11-09T01:23:30.588Z,21.83
2022-11-09T01:23:53.416Z,21.86
2022-11-09T01:24:14.992Z,21.87
2022-11-09T01:24:37.566Z,21.89
2022-11-09T01:25:00.584Z,21.89
2022-11-09T01:25:22.133Z,21.93
2022-11-09T01:25:44.301Z,21.93
2022-11-09T01:26:09.019Z,21.93
2022-11-09T01:26:31.004Z,21.91
2022-11-09T01:26:52.603Z,21.92
2022-11-09T01:27:16.858Z,21.82
2022-11-09T01:27:38.413Z,21.94
2022-11-09T01:28:00.915Z,21.93
2022-11-09T01:28:22.520Z,21.98
2022-11-09T01:28:55.478Z,22.01
2022-11-09T01:29:17.119Z,22.05
2022-11-09T01:29:38.728Z,22.07
2022-11-09T01:30:00.313Z,22.07
2022-11-09T01:30:21.944Z,22.10
2022-11-09T01:30:44.467Z,22.11
2022-11-09T01:31:08.210Z,22.10
2022-11-09T01:31:29.906Z,22.12
2022-11-09T01:31:55.056Z,22.13
2022-11-09T01:32:16.607Z,22.13
2022-11-09T01:32:38.243Z,22.16
2022-11-09T01:33:00.338Z,22.15
2022-11-09T01:33:22.206Z,22.12
2022-11-09T01:33:45.466Z,22.10
2022-11-09T01:34:07.073Z,22.13
2022-11-09T01:34:29.080Z,22.15
2022-11-09T01:34:50.642Z,22.15
2022-11-09T01:35:12.220Z,22.15
2022-11-09T01:35:35.476Z,22.14
2022-11-09T01:36:02.436Z,22.09
2022-11-09T01:36:26.152Z,22.10
2022-11-09T01:36:51.458Z,22.12
2022-11-09T01:37:13.038Z,22.14
2022-11-09T01:37:34.645Z,22.15
2022-11-09T01:37:56.351Z,22.16
2022-11-09T01:38:18.985Z,22.15
2022-11-09T01:38:40.704Z,22.14
2022-11-09T01:39:03.838Z,22.12
2022-11-09T01:39:25.436Z,22.12
2022-11-09T01:39:47.969Z,22.12
2022-11-09T01:40:12.159Z,22.12
2022-11-09T01:40:35.608Z,22.07
2022-11-09T01:40:57.604Z,22.02
2022-11-09T01:41:22.418Z,22.10
2022-11-09T01:41:43.999Z,22.11
2022-11-09T01:42:05.682Z,22.12
2022-11-09T01:42:28.653Z,22.12
2022-11-09T01:42:51.213Z,22.13
2022-11-09T01:43:16.589Z,22.16
2022-11-09T01:43:38.450Z,22.16
2022-11-09T01:44:08.488Z,22.17
2022-11-09T01:44:38.776Z,22.15
2022-11-09T01:45:21.522Z,22.15
2022-11-09T01:45:45.948Z,22.14
2022-11-09T01:46:17.254Z,22.15
2022-11-09T01:46:44.229Z,22.14
2022-11-09T01:47:11.381Z,22.16
2022-11-09T01:47:33.943Z,22.16
2022-11-09T01:48:02.698Z,22.17
2022-11-09T01:48:33.543Z,22.17
2022-11-09T01:49:01.053Z,22.21
2022-11-09T01:49:33.552Z,22.22
2022-11-09T01:49:59.075Z,22.19
2022-11-09T01:50:27.643Z,22.22
2022-11-09T01:50:56.804Z,22.21
2022-11-09T01:51:23.876Z,22.20
2022-11-09T01:51:51.780Z,22.12
2022-11-09T01:52:18.884Z,22.24
2022-11-09T01:52:44.159Z,22.19
2022-11-09T01:53:10.205Z,22.25
2022-11-09T01:53:38.397Z,22.28
2022-11-09T01:54:05.402Z,22.27
2022-11-09T01:54:29.633Z,22.29
2022-11-09T01:54:58.263Z,22.21
2022-11-09T01:55:24.217Z,22.25
2022-11-09T01:55:48.583Z,22.26
2022-11-09T01:56:13.655Z,22.24
2022-11-09T01:56:37.259Z,22.24
2022-11-09T01:57:03.288Z,22.27
2022-11-09T01:57:28.133Z,22.27
2022-11-09T01:57:54.828Z,22.24
2022-11-09T01:58:21.621Z,22.28
2022-11-09T01:58:47.698Z,22.26
2022-11-09T01:59:15.623Z,22.25
2022-11-09T01:59:42.938Z,22.27
2022-11-09T02:00:07.401Z,22.28
2022-11-09T02:00:38.933Z,22.28
2022-11-09T02:01:01.124Z,22.27
2022-11-09T02:01:22.868Z,22.26
2022-11-09T02:01:46.796Z,22.24
2022-11-09T02:02:09.411Z,22.27
2022-11-09T02:02:36.201Z,22.26
2022-11-09T02:03:04.658Z,22.18
2022-11-09T02:03:34.507Z,22.23
2022-11-09T02:03:59.984Z,22.25
2022-11-09T02:04:24.763Z,22.26
2022-11-09T02:04:52.947Z,22.26
2022-11-09T02:05:17.961Z,22.28
2022-11-09T02:05:42.898Z,22.28
2022-11-09T02:06:08.043Z,22.29
2022-11-09T02:06:32.836Z,22.29
2022-11-09T02:06:57.281Z,22.27
2022-11-09T02:07:21.574Z,22.26
2022-11-09T02:07:44.066Z,22.26
2022-11-09T02:08:07.102Z,22.27
2022-11-09T02:08:32.349Z,22.27
2022-11-09T02:08:56.459Z,22.27
2022-11-09T02:09:25.592Z,22.26
2022-11-09T02:09:52.850Z,22.25
2022-11-09T02:10:22.149Z,22.27
2022-11-09T02:10:52.925Z,22.28
2022-11-09T02:11:20.015Z,22.29
2022-11-09T02:11:41.603Z,22.29
2022-11-09T02:12:03.523Z,22.28
2022-11-09T02:12:28.091Z,21.97
2022-11-09T02:12:52.705Z,22.27
2022-11-09T02:13:18.378Z,22.27
2022-11-09T02:13:45.046Z,22.29
2022-11-09T02:14:07.582Z,22.24
2022-11-09T02:14:32.513Z,22.27
2022-11-09T02:14:54.924Z,22.28
2022-11-09T02:15:17.090Z,22.27
2022-11-09T02:15:42.878Z,22.26
2022-11-09T02:16:10.383Z,22.26
2022-11-09T02:16:32.683Z,22.26
2022-11-09T02:16:54.410Z,22.22
2022-11-09T02:17:16.417Z,22.28
2022-11-09T02:17:41.504Z,22.27
2022-11-09T02:18:04.173Z,22.26
2022-11-09T02:18:28.094Z,22.25
2022-11-09T02:18:52.648Z,22.25
2022-11-09T02:19:15.404Z,22.24
2022-11-09T02:19:37.010Z,22.25
2022-11-09T02:19:58.910Z,22.27
2022-11-09T02:20:22.315Z,22.27
2022-11-09T02:20:45.700Z,22.28
2022-11-09T02:21:08.228Z,22.27
2022-11-09T02:21:31.855Z,22.26
2022-11-09T02:21:53.615Z,22.28
2022-11-09T02:22:15.609Z,22.25
2022-11-09T02:22:38.159Z,22.22
2022-11-09T02:23:00.077Z,22.20
2022-11-09T02:23:24.378Z,22.20
2022-11-09T02:23:46.368Z,22.22
2022-11-09T02:24:09.106Z,22.21
2022-11-09T02:24:32.770Z,22.21
2022-11-09T02:24:56.546Z,22.21
2022-11-09T02:25:18.696Z,22.18
2022-11-09T02:25:40.331Z,22.18
2022-11-09T02:26:09.886Z,22.17
2022-11-09T02:26:36.243Z,22.21
2022-11-09T02:26:58.446Z,22.19
2022-11-09T02:27:21.213Z,22.21
2022-11-09T02:27:44.798Z,22.18
2022-11-09T02:28:08.023Z,22.20
2022-11-09T02:28:32.075Z,22.19
2022-11-09T02:28:55.516Z,22.17
2022-11-09T02:29:21.752Z,22.21
2022-11-09T02:29:46.620Z,22.19
2022-11-09T02:30:09.382Z,22.22
2022-11-09T02:30:33.263Z,22.23
2022-11-09T02:30:57.143Z,22.22
2022-11-09T02:31:21.860Z,22.21
2022-11-09T02:31:48.271Z,22.20
2022-11-09T02:32:13.838Z,22.22
2022-11-09T02:32:36.423Z,22.24
2022-11-09T02:32:58.303Z,22.25
2022-11-09T02:33:20.296Z,22.25
2022-11-09T02:33:44.309Z,22.28
2022-11-09T02:34:10.221Z,22.25
2022-11-09T02:34:31.972Z,22.26
2022-11-09T02:34:53.712Z,22.25
2022-11-09T02:35:15.311Z,22.27
2022-11-09T02:35:39.218Z,22.26
2022-11-09T02:36:00.888Z,22.28
2022-11-09T02:36:23.206Z,22.23
2022-11-09T02:36:45.647Z,22.26
2022-11-09T02:37:13.592Z,22.22
2022-11-09T02:37:38.572Z,22.20
2022-11-09T02:38:02.310Z,22.17
2022-11-09T02:38:23.947Z,22.19
2022-11-09T02:38:46.543Z,22.14
2022-11-09T02:39:10.585Z,22.15
2022-11-09T02:39:32.764Z,22.09
2022-11-09T02:39:58.223Z,22.17
2022-11-09T02:40:27.031Z,22.16
2022-11-09T02:40:51.935Z,22.18
2022-11-09T02:41:14.714Z,22.18
2022-11-09T02:41:44.186Z,22.18
2022-11-09T02:42:10.481Z,22.21
2022-11-09T02:42:35.448Z,22.15
2022-11-09T02:42:57.662Z,22.21
2022-11-09T02:43:21.047Z,22.20
2022-11-09T02:43:43.267Z,22.19
2022-11-09T02:44:05.349Z,22.19
2022-11-09T02:44:30.129Z,22.18
2022-11-09T02:44:57.216Z,22.13
2022-11-09T02:45:18.982Z,22.18
2022-11-09T02:45:40.789Z,22.20
2022-11-09T02:46:02.697Z,22.19
2022-11-09T02:46:26.874Z,22.20
2022-11-09T02:46:48.531Z,22.21
2022-11-09T02:47:10.183Z,22.20
2022-11-09T02:47:31.751Z,22.18
2022-11-09T02:47:54.436Z,22.21
2022-11-09T02:48:16.044Z,22.19
2022-11-09T02:48:37.661Z,22.21
2022-11-09T02:48:59.355Z,22.19
2022-11-09T02:49:22.313Z,22.13
2022-11-09T02:49:43.976Z,22.14
2022-11-09T02:50:06.223Z,22.16
2022-11-09T02:50:27.933Z,22.15
2022-11-09T02:50:51.815Z,22.16
2022-11-09T02:51:13.358Z,22.16
2022-11-09T02:51:35.842Z,22.11
2022-11-09T02:51:57.453Z,22.16
2022-11-09T02:52:19.145Z,22.15
2022-11-09T02:52:42.034Z,22.12
2022-11-09T02:53:03.987Z,22.15
2022-11-09T02:53:28.663Z,22.14
2022-11-09T02:53:50.249Z,22.17
2022-11-09T02:54:12.911Z,22.14
2022-11-09T02:54:35.434Z,22.12
2022-11-09T02:54:58.473Z,22.10
2022-11-09T02:55:20.076Z,22.05
2022-11-09T02:55:41.697Z,22.12
2022-11-09T02:56:04.669Z,22.11
2022-11-09T02:56:26.327Z,22.11
2022-11-09T02:56:48.034Z,22.11
2022-11-09T02:57:09.644Z,22.10
2022-11-09T02:57:33.214Z,22.07
2022-11-09T02:57:55.969Z,22.13
2022-11-09T02:58:18.132Z,22.14
2022-11-09T02:58:39.777Z,22.14
2022-11-09T02:59:03.202Z,22.14
2022-11-09T02:59:25.069Z,22.14
2022-11-09T02:59:47.039Z,22.15
2022-11-09T03:00:10.172Z,22.15
2022-11-09T03:00:32.782Z,22.17
2022-11-09T03:00:54.547Z,22.14
2022-11-09T03:01:18.524Z,22.17
2022-11-09T03:01:40.183Z,22.19
2022-11-09T03:02:02.828Z,22.19
2022-11-09T03:02:25.783Z,22.18
2022-11-09T03:02:47.473Z,22.14
2022-11-09T03:03:10.414Z,22.12
2022-11-09T03:03:33.598Z,22.15
2022-11-09T03:03:55.348Z,22.15
2022-11-09T03:04:18.333Z,22.15
2022-11-09T03:04:40.424Z,22.10
2022-11-09T03:05:03.749Z,22.10
2022-11-09T03:05:25.352Z,22.09
2022-11-09T03:05:46.978Z,22.11
2022-11-09T03:06:11.559Z,22.13
2022-11-09T03:06:36.181Z,22.13
2022-11-09T03:07:03.725Z,22.16
2022-11-09T03:07:26.666Z,22.16
2022-11-09T03:07:49.331Z,22.18
2022-11-09T03:08:11.264Z,22.17
2022-11-09T03:08:32.951Z,22.17
2022-11-09T03:08:56.143Z,22.10
2022-11-09T03:09:17.869Z,22.17
2022-11-09T03:09:39.430Z,22.17
2022-11-09T03:10:01.367Z,22.18
2022-11-09T03:10:24.043Z,22.14
2022-11-09T03:10:46.273Z,22.19
2022-11-09T03:11:08.090Z,22.20
2022-11-09T03:11:30.148Z,22.19
2022-11-09T03:11:54.309Z,22.18
2022-11-09T03:12:31.206Z,22.19
2022-11-09T03:13:01.967Z,22.21
2022-11-09T03:13:23.592Z,22.21
2022-11-09T03:13:46.346Z,22.22
2022-11-09T03:14:09.741Z,22.20
2022-11-09T03:14:33.236Z,22.21
2022-11-09T03:14:54.829Z,22.22
2022-11-09T03:15:17.731Z,22.23
2022-11-09T03:15:42.018Z,22.23
2022-11-09T03:16:05.552Z,22.17
2022-11-09T03:16:30.408Z,22.22
2022-11-09T03:16:52.547Z,22.18
2022-11-09T03:17:14.675Z,22.19
2022-11-09T03:17:38.076Z,22.19
2022-11-09T03:17:59.663Z,22.21
2022-11-09T03:18:21.313Z,22.17
2022-11-09T03:18:42.995Z,22.13
2022-11-09T03:19:06.739Z,22.15
2022-11-09T03:19:29.364Z,22.17
2022-11-09T03:19:50.975Z,22.18
2022-11-09T03:20:13.202Z,22.17
2022-11-09T03:20:36.447Z,22.13
2022-11-09T03:21:01.398Z,22.17
2022-11-09T03:21:24.896Z,22.18
2022-11-09T03:21:46.995Z,22.18
2022-11-09T03:22:08.587Z,22.20
2022-11-09T03:22:31.092Z,22.20
2022-11-09T03:22:57.862Z,22.21
2022-11-09T03:23:19.763Z,22.20
2022-11-09T03:23:41.562Z,22.22
2022-11-09T03:24:04.705Z,22.24
2022-11-09T03:24:26.744Z,22.22
2022-11-09T03:24:51.508Z,22.21
2022-11-09T03:25:14.451Z,22.24
2022-11-09T03:25:36.523Z,22.23
2022-11-09T03:25:59.255Z,22.22
2022-11-09T03:26:21.312Z,22.21
2022-11-09T03:26:43.913Z,22.22
2022-11-09T03:27:05.627Z,22.23
2022-11-09T03:27:27.364Z,22.23
2022-11-09T03:27:48.988Z,22.24
2022-11-09T03:28:10.626Z,22.24
2022-11-09T03:28:35.170Z,22.26
2022-11-09T03:28:57.088Z,22.13
2022-11-09T03:29:18.740Z,22.26
2022-11-09T03:29:40.396Z,22.26
2022-11-09T03:30:02.011Z,22.25
2022-11-09T03:30:25.691Z,22.22
2022-11-09T03:30:47.479Z,22.22
2022-11-09T03:31:09.244Z,22.24
2022-11-09T03:31:31.015Z,22.23
2022-11-09T03:31:58.697Z,22.24
2022-11-09T03:32:20.577Z,22.24
2022-11-09T03:32:45.650Z,22.23
2022-11-09T03:33:10.111Z,22.25
2022-11-09T03:33:33.622Z,22.26
2022-11-09T03:33:55.449Z,22.27
2022-11-09T03:34:17.094Z,22.24
2022-11-09T03:34:38.773Z,22.26
2022-11-09T03:35:01.347Z,22.27
2022-11-09T03:35:22.952Z,22.23
2022-11-09T03:35:44.627Z,22.21
2022-11-09T03:36:09.237Z,22.20
2022-11-09T03:36:33.167Z,22.18
2022-11-09T03:36:54.756Z,22.20
2022-11-09T03:37:17.759Z,22.20
2022-11-09T03:37:39.346Z,22.18
2022-11-09T03:38:02.063Z,22.20
2022-11-09T03:38:24.059Z,22.22
2022-11-09T03:38:45.638Z,22.21
2022-11-09T03:39:07.258Z,22.22
2022-11-09T03:39:28.875Z,22.22
2022-11-09T03:39:52.275Z,22.17
2022-11-09T03:40:13.841Z,22.20
2022-11-09T03:40:35.880Z,22.22
2022-11-09T03:40:59.395Z,22.22
2022-11-09T03:41:21.014Z,22.23
2022-11-09T03:41:43.641Z,22.21
2022-11-09T03:42:05.277Z,22.23
2022-11-09T03:42:26.987Z,22.23
2022-11-09T03:42:49.273Z,22.24
2022-11-09T03:43:11.801Z,22.23
2022-11-09T03:43:33.352Z,22.22
2022-11-09T03:43:54.928Z,22.22
2022-11-09T03:44:16.467Z,22.21
2022-11-09T03:44:38.073Z,22.20
2022-11-09T03:45:00.615Z,22.22
2022-11-09T03:45:22.276Z,22.21
2022-11-09T03:45:44.035Z,22.19
2022-11-09T03:46:05.859Z,22.19
2022-11-09T03:46:27.403Z,22.21
2022-11-09T03:46:49.880Z,22.19
2022-11-09T03:47:11.423Z,22.18
2022-11-09T03:47:32.982Z,22.17
2022-11-09T03:47:56.872Z,22.19
2022-11-09T03:48:19.430Z,22.23
2022-11-09T03:48:40.992Z,22.21
2022-11-09T03:49:02.565Z,22.21
2022-11-09T03:49:24.169Z,22.15
2022-11-09T03:49:45.702Z,22.14
2022-11-09T03:50:09.290Z,22.19
2022-11-09T03:50:32.758Z,22.19
2022-11-09T03:50:54.332Z,22.21
2022-11-09T03:51:15.901Z,22.22
2022-11-09T03:51:39.783Z,22.24
2022-11-09T03:52:01.359Z,22.22
2022-11-09T03:52:22.895Z,22.21
2022-11-09T03:52:45.493Z,22.22
2022-11-09T03:53:09.470Z,22.24
2022-11-09T03:53:31.064Z,22.22
2022-11-09T03:53:52.672Z,22.24
2022-11-09T03:54:14.248Z,22.23
2022-11-09T03:54:36.779Z,22.25
2022-11-09T03:54:58.389Z,22.27
2022-11-09T03:55:20.255Z,22.24
2022-11-09T03:55:41.799Z,22.25
2022-11-09T03:56:04.391Z,22.25
2022-11-09T03:56:25.966Z,22.24
2022-11-09T03:56:47.528Z,22.25
2022-11-09T03:57:09.076Z,22.25
2022-11-09T03:57:31.684Z,22.21
2022-11-09T03:57:53.411Z,22.22
2022-11-09T03:58:14.952Z,22.19
2022-11-09T03:58:36.575Z,22.15
2022-11-09T03:58:59.122Z,22.18
2022-11-09T03:59:20.792Z,22.16
2022-11-09T03:59:42.372Z,22.18
2022-11-09T04:00:05.406Z,22.16
2022-11-09T04:00:35.783Z,22.09
2022-11-09T04:00:57.354Z,22.15
2022-11-09T04:01:18.992Z,22.13
2022-11-09T04:01:41.655Z,22.17
2022-11-09T04:02:03.338Z,22.17
2022-11-09T04:02:24.961Z,22.19
2022-11-09T04:02:46.623Z,22.18
2022-11-09T04:03:09.216Z,22.18
2022-11-09T04:03:30.831Z,22.19
2022-11-09T04:03:52.468Z,22.19
2022-11-09T04:04:14.069Z,22.18
2022-11-09T04:04:36.618Z,22.20
2022-11-09T04:04:58.178Z,22.15
2022-11-09T04:05:20.142Z,22.14
2022-11-09T04:05:42.759Z,22.15
2022-11-09T04:06:04.763Z,22.16
2022-11-09T04:06:26.394Z,22.17
2022-11-09T04:06:49.364Z,22.16
2022-11-09T04:07:12.444Z,22.13
2022-11-09T04:07:34.014Z,22.14
2022-11-09T04:07:56.694Z,22.16
2022-11-09T04:08:18.479Z,22.18
2022-11-09T04:08:41.040Z,22.19
2022-11-09T04:09:03.021Z,22.15
2022-11-09T04:09:24.630Z,22.13
2022-11-09T04:09:47.155Z,22.13
2022-11-09T04:10:08.771Z,22.11
2022-11-09T04:10:30.343Z,22.14
2022-11-09T04:10:52.160Z,22.12
2022-11-09T04:11:14.689Z,22.10
2022-11-09T04:11:36.228Z,22.11
2022-11-09T04:11:57.794Z,22.11
2022-11-09T04:12:19.367Z,22.11
2022-11-09T04:12:41.954Z,22.09
2022-11-09T04:13:03.542Z,22.13
2022-11-09T04:13:25.325Z,22.10
2022-11-09T04:13:47.410Z,22.13
2022-11-09T04:14:09.950Z,22.13
2022-11-09T04:14:31.783Z,22.13
2022-11-09T04:14:53.900Z,22.13
2022-11-09T04:15:15.978Z,22.11
2022-11-09T04:15:38.581Z,22.10
2022-11-09T04:16:00.116Z,22.12
2022-11-09T04:16:21.738Z,22.15
2022-11-09T04:16:43.278Z,22.15
2022-11-09T04:17:04.838Z,22.13
2022-11-09T04:17:27.382Z,22.00
2022-11-09T04:17:56.708Z,22.15
2022-11-09T04:18:18.291Z,22.15
2022-11-09T04:18:39.922Z,22.18
2022-11-09T04:19:02.481Z,22.17
2022-11-09T04:19:24.809Z,22.17
2022-11-09T04:19:46.418Z,22.17
2022-11-09T04:20:09.326Z,22.11
2022-11-09T04:20:32.234Z,22.13
2022-11-09T04:20:54.936Z,22.12
2022-11-09T04:21:20.191Z,22.03
2022-11-09T04:21:44.507Z,22.06
2022-11-09T04:22:07.625Z,22.07
2022-11-09T04:22:30.171Z,22.08
2022-11-09T04:22:55.720Z,22.08
2022-11-09T04:23:17.699Z,22.07
2022-11-09T04:23:39.494Z,22.07
2022-11-09T04:24:02.061Z,22.04
2022-11-09T04:24:23.617Z,22.09
2022-11-09T04:24:45.195Z,22.10
2022-11-09T04:25:07.342Z,22.09
2022-11-09T04:25:33.998Z,22.10
2022-11-09T04:25:58.331Z,22.08
2022-11-09T04:26:19.990Z,22.09
2022-11-09T04:26:41.621Z,22.08
2022-11-09T04:27:04.213Z,22.09
2022-11-09T04:27:25.898Z,22.12
2022-11-09T04:27:47.494Z,22.10
2022-11-09T04:28:11.904Z,22.13
2022-11-09T04:28:34.449Z,22.12
2022-11-09T04:28:56.050Z,22.13
2022-11-09T04:29:17.610Z,22.14
2022-11-09T04:29:39.186Z,22.14
2022-11-09T04:30:01.762Z,22.18
2022-11-09T04:30:24.582Z,22.09
2022-11-09T04:30:46.204Z,22.10
2022-11-09T04:31:07.773Z,22.13
2022-11-09T04:31:30.326Z,22.15
2022-11-09T04:31:51.961Z,22.16
2022-11-09T04:32:13.617Z,22.15
2022-11-09T04:32:35.148Z,22.17
2022-11-09T04:32:58.825Z,22.21
2022-11-09T04:33:20.737Z,22.16
2022-11-09T04:33:42.583Z,22.15
2022-11-09T04:34:04.180Z,22.15
2022-11-09T04:34:25.743Z,22.09
2022-11-09T04:34:48.364Z,22.14
2022-11-09T04:35:09.931Z,22.09
2022-11-09T04:35:33.633Z,22.06
2022-11-09T04:35:55.193Z,22.12
2022-11-09T04:36:18.127Z,22.05
2022-11-09T04:36:42.736Z,22.11
2022-11-09T04:37:04.324Z,22.09
2022-11-09T04:37:28.199Z,22.11
2022-11-09T04:37:54.149Z,22.12
2022-11-09T04:38:15.986Z,22.05
2022-11-09T04:38:38.531Z,22.11
2022-11-09T04:39:00.086Z,22.11
2022-11-09T04:39:21.678Z,22.11
2022-11-09T04:39:43.332Z,22.12
2022-11-09T04:40:06.019Z,22.13
2022-11-09T04:40:31.152Z,22.12
2022-11-09T04:40:52.737Z,22.02
2022-11-09T04:41:14.531Z,22.09
2022-11-09T04:41:36.087Z,22.13
2022-11-09T04:41:58.635Z,22.13
2022-11-09T04:42:22.422Z,22.15
2022-11-09T04:42:43.968Z,22.17
2022-11-09T04:43:06.661Z,22.17
2022-11-09T04:43:29.432Z,22.19
2022-11-09T04:43:50.999Z,22.19
2022-11-09T04:44:12.578Z,22.18
2022-11-09T04:44:34.120Z,22.12
2022-11-09T04:44:56.695Z,22.16
2022-11-09T04:45:18.634Z,22.14
2022-11-09T04:45:40.566Z,22.17
2022-11-09T04:46:02.697Z,22.18
2022-11-09T04:46:25.674Z,22.18
2022-11-09T04:46:47.235Z,22.20
2022-11-09T04:47:08.807Z,22.19
2022-11-09T04:47:30.402Z,22.16
2022-11-09T04:47:52.032Z,22.16
2022-11-09T04:48:14.626Z,22.17
2022-11-09T04:48:36.210Z,22.15
2022-11-09T04:48:57.806Z,22.17
2022-11-09T04:49:19.371Z,22.16
2022-11-09T04:49:41.852Z,22.13
2022-11-09T04:50:03.938Z,22.20
2022-11-09T04:50:26.127Z,22.17
2022-11-09T04:50:49.730Z,22.20
2022-11-09T04:51:12.454Z,22.15
2022-11-09T04:51:34.075Z,22.20
2022-11-09T04:51:55.636Z,22.20
2022-11-09T04:52:17.177Z,22.22
2022-11-09T04:52:41.169Z,22.18
2022-11-09T04:53:08.028Z,22.22
2022-11-09T04:53:30.259Z,22.14
2022-11-09T04:53:51.830Z,22.22
2022-11-09T04:54:14.687Z,22.19
2022-11-09T04:54:36.233Z,22.11
2022-11-09T04:54:57.944Z,22.19
2022-11-09T04:55:42.700Z,22.16